sensor_id;sensor_type;location;lat;lon;timestamp;temperature;humidity
40289;DHT22;28991;52.028;5.526;2023-04-23T00:01:10;19.50;49.50
40289;DHT22;28991;52.028;5.526;2023-04-23T00:03:37;19.50;49.50
40289;DHT22;28991;52.028;5.526;2023-04-23T00:06:06;19.50;49.50
40289;DHT22;28991;52.028;5.526;2023-04-23T00:08:33;19.50;49.60
40289;DHT22;28991;52.028;5.526;2023-04-23T00:10:59;19.40;49.60
40289;DHT22;28991;52.028;5.526;2023-04-23T00:13:25;19.40;49.60
40289;DHT22;28991;52.028;5.526;2023-04-23T00:15:51;19.40;49.60
40289;DHT22;28991;52.028;5.526;2023-04-23T00:18:17;19.50;49.60
40289;DHT22;28991;52.028;5.526;2023-04-23T00:20:42;19.50;49.70
40289;DHT22;28991;52.028;5.526;2023-04-23T00:23:08;19.50;49.60
40289;DHT22;28991;52.028;5.526;2023-04-23T00:25:34;20.10;49.90
40289;DHT22;28991;52.028;5.526;2023-04-23T00:27:59;19.40;49.60
40289;DHT22;28991;52.028;5.526;2023-04-23T00:30:25;19.50;49.60
40289;DHT22;28991;52.028;5.526;2023-04-23T00:32:50;19.40;49.60
40289;DHT22;28991;52.028;5.526;2023-04-23T00:35:16;19.50;49.60
40289;DHT22;28991;52.028;5.526;2023-04-23T00:37:43;19.40;49.60
40289;DHT22;28991;52.028;5.526;2023-04-23T00:40:09;19.40;49.60
40289;DHT22;28991;52.028;5.526;2023-04-23T00:42:36;19.40;49.60
40289;DHT22;28991;52.028;5.526;2023-04-23T00:45:03;19.40;49.60
40289;DHT22;28991;52.028;5.526;2023-04-23T00:47:30;19.40;49.60
40289;DHT22;28991;52.028;5.526;2023-04-23T00:49:57;19.40;49.60
40289;DHT22;28991;52.028;5.526;2023-04-23T00:52:23;19.40;49.60
40289;DHT22;28991;52.028;5.526;2023-04-23T00:54:49;19.40;49.60
40289;DHT22;28991;52.028;5.526;2023-04-23T00:57:14;19.40;49.70
40289;DHT22;28991;52.028;5.526;2023-04-23T00:59:41;19.40;49.60
40289;DHT22;28991;52.028;5.526;2023-04-23T01:02:07;19.40;49.70
40289;DHT22;28991;52.028;5.526;2023-04-23T01:04:32;19.90;49.90
40289;DHT22;28991;52.028;5.526;2023-04-23T01:06:59;19.50;49.70
40289;DHT22;28991;52.028;5.526;2023-04-23T01:09:25;19.40;49.60
40289;DHT22;28991;52.028;5.526;2023-04-23T01:11:52;19.40;49.70
40289;DHT22;28991;52.028;5.526;2023-04-23T01:14:18;19.40;49.70
40289;DHT22;28991;52.028;5.526;2023-04-23T01:16:44;19.40;49.70
40289;DHT22;28991;52.028;5.526;2023-04-23T01:19:10;19.40;49.70
40289;DHT22;28991;52.028;5.526;2023-04-23T01:21:37;19.60;49.80
40289;DHT22;28991;52.028;5.526;2023-04-23T01:24:06;19.40;49.70
40289;DHT22;28991;52.028;5.526;2023-04-23T01:26:33;19.40;49.70
40289;DHT22;28991;52.028;5.526;2023-04-23T01:28:59;19.40;49.60
40289;DHT22;28991;52.028;5.526;2023-04-23T01:31:25;19.30;49.60
40289;DHT22;28991;52.028;5.526;2023-04-23T01:33:52;19.40;49.70
40289;DHT22;28991;52.028;5.526;2023-04-23T01:36:20;19.40;49.60
40289;DHT22;28991;52.028;5.526;2023-04-23T01:38:46;19.40;49.70
40289;DHT22;28991;52.028;5.526;2023-04-23T01:41:12;19.30;49.70
40289;DHT22;28991;52.028;5.526;2023-04-23T01:43:40;19.40;49.70
40289;DHT22;28991;52.028;5.526;2023-04-23T01:46:06;19.40;49.70
40289;DHT22;28991;52.028;5.526;2023-04-23T01:48:32;19.50;49.80
40289;DHT22;28991;52.028;5.526;2023-04-23T01:50:57;19.40;49.80
40289;DHT22;28991;52.028;5.526;2023-04-23T01:53:23;19.30;49.70
40289;DHT22;28991;52.028;5.526;2023-04-23T01:55:50;19.40;49.80
40289;DHT22;28991;52.028;5.526;2023-04-23T01:58:16;19.30;49.70
40289;DHT22;28991;52.028;5.526;2023-04-23T02:00:42;19.30;49.70
40289;DHT22;28991;52.028;5.526;2023-04-23T02:03:08;19.30;49.70
40289;DHT22;28991;52.028;5.526;2023-04-23T02:05:34;19.30;49.70
40289;DHT22;28991;52.028;5.526;2023-04-23T02:08:00;19.30;49.70
40289;DHT22;28991;52.028;5.526;2023-04-23T02:10:26;19.30;49.70
40289;DHT22;28991;52.028;5.526;2023-04-23T02:12:52;19.30;49.70
40289;DHT22;28991;52.028;5.526;2023-04-23T02:15:17;19.40;49.70
40289;DHT22;28991;52.028;5.526;2023-04-23T02:17:44;19.60;49.90
40289;DHT22;28991;52.028;5.526;2023-04-23T02:20:11;19.40;49.70
40289;DHT22;28991;52.028;5.526;2023-04-23T02:22:39;19.20;49.70
40289;DHT22;28991;52.028;5.526;2023-04-23T02:25:06;19.30;49.70
40289;DHT22;28991;52.028;5.526;2023-04-23T02:27:32;19.30;49.70
40289;DHT22;28991;52.028;5.526;2023-04-23T02:29:58;19.30;49.70
40289;DHT22;28991;52.028;5.526;2023-04-23T02:32:24;19.30;49.80
40289;DHT22;28991;52.028;5.526;2023-04-23T02:34:50;19.30;49.80
40289;DHT22;28991;52.028;5.526;2023-04-23T02:37:16;19.20;49.70
40289;DHT22;28991;52.028;5.526;2023-04-23T02:39:41;19.30;49.70
40289;DHT22;28991;52.028;5.526;2023-04-23T02:42:07;19.30;49.70
40289;DHT22;28991;52.028;5.526;2023-04-23T02:44:33;19.50;49.80
40289;DHT22;28991;52.028;5.526;2023-04-23T02:46:58;19.30;49.80
40289;DHT22;28991;52.028;5.526;2023-04-23T02:49:24;19.30;49.80
40289;DHT22;28991;52.028;5.526;2023-04-23T02:51:50;19.30;49.80
40289;DHT22;28991;52.028;5.526;2023-04-23T02:54:16;19.20;49.70
40289;DHT22;28991;52.028;5.526;2023-04-23T02:56:41;19.30;49.80
40289;DHT22;28991;52.028;5.526;2023-04-23T02:59:07;19.30;49.70
40289;DHT22;28991;52.028;5.526;2023-04-23T03:01:33;19.30;49.70
40289;DHT22;28991;52.028;5.526;2023-04-23T03:03:59;19.60;49.90
40289;DHT22;28991;52.028;5.526;2023-04-23T03:06:25;19.50;49.80
40289;DHT22;28991;52.028;5.526;2023-04-23T03:08:51;19.40;49.80
40289;DHT22;28991;52.028;5.526;2023-04-23T03:11:17;19.40;49.80
40289;DHT22;28991;52.028;5.526;2023-04-23T03:13:42;19.40;49.80
40289;DHT22;28991;52.028;5.526;2023-04-23T03:16:08;19.30;49.70
40289;DHT22;28991;52.028;5.526;2023-04-23T03:18:33;19.30;49.70
40289;DHT22;28991;52.028;5.526;2023-04-23T03:20:59;19.30;49.70
40289;DHT22;28991;52.028;5.526;2023-04-23T03:23:25;19.30;49.70
40289;DHT22;28991;52.028;5.526;2023-04-23T03:25:50;19.30;49.70
40289;DHT22;28991;52.028;5.526;2023-04-23T03:28:16;19.30;49.70
40289;DHT22;28991;52.028;5.526;2023-04-23T03:30:41;20.00;50.10
40289;DHT22;28991;52.028;5.526;2023-04-23T03:33:07;19.20;49.70
40289;DHT22;28991;52.028;5.526;2023-04-23T03:35:32;19.20;49.60
40289;DHT22;28991;52.028;5.526;2023-04-23T03:37:58;19.20;50.20
40289;DHT22;28991;52.028;5.526;2023-04-23T03:40:24;19.70;50.00
40289;DHT22;28991;52.028;5.526;2023-04-23T03:42:49;19.30;49.70
40289;DHT22;28991;52.028;5.526;2023-04-23T03:45:15;19.30;49.70
40289;DHT22;28991;52.028;5.526;2023-04-23T03:47:42;19.30;49.70
40289;DHT22;28991;52.028;5.526;2023-04-23T03:50:08;19.30;49.70
40289;DHT22;28991;52.028;5.526;2023-04-23T03:52:34;19.30;49.80
40289;DHT22;28991;52.028;5.526;2023-04-23T03:55:00;19.30;49.80
40289;DHT22;28991;52.028;5.526;2023-04-23T03:57:26;19.20;49.70
40289;DHT22;28991;52.028;5.526;2023-04-23T03:59:51;19.20;49.70
40289;DHT22;28991;52.028;5.526;2023-04-23T04:02:17;19.20;49.70
40289;DHT22;28991;52.028;5.526;2023-04-23T04:04:43;19.20;49.70
40289;DHT22;28991;52.028;5.526;2023-04-23T04:07:13;19.30;49.70
40289;DHT22;28991;52.028;5.526;2023-04-23T04:09:38;19.30;49.70
40289;DHT22;28991;52.028;5.526;2023-04-23T04:12:04;19.30;49.70
40289;DHT22;28991;52.028;5.526;2023-04-23T04:14:31;19.30;49.70
40289;DHT22;28991;52.028;5.526;2023-04-23T04:16:57;19.30;49.80
40289;DHT22;28991;52.028;5.526;2023-04-23T04:19:23;19.30;49.70
40289;DHT22;28991;52.028;5.526;2023-04-23T04:21:48;19.30;49.80
40289;DHT22;28991;52.028;5.526;2023-04-23T04:24:14;19.20;49.70
40289;DHT22;28991;52.028;5.526;2023-04-23T04:26:40;19.20;49.70
40289;DHT22;28991;52.028;5.526;2023-04-23T04:29:06;19.30;49.80
40289;DHT22;28991;52.028;5.526;2023-04-23T04:31:33;19.20;49.70
40289;DHT22;28991;52.028;5.526;2023-04-23T04:33:59;19.20;49.60
40289;DHT22;28991;52.028;5.526;2023-04-23T04:36:25;19.20;49.60
40289;DHT22;28991;52.028;5.526;2023-04-23T04:38:51;19.30;49.60
40289;DHT22;28991;52.028;5.526;2023-04-23T04:41:18;19.30;49.30
40289;DHT22;28991;52.028;5.526;2023-04-23T04:43:44;19.30;49.10
40289;DHT22;28991;52.028;5.526;2023-04-23T04:46:11;19.60;48.90
40289;DHT22;28991;52.028;5.526;2023-04-23T04:48:37;19.50;48.60
40289;DHT22;28991;52.028;5.526;2023-04-23T04:51:03;19.50;48.30
40289;DHT22;28991;52.028;5.526;2023-04-23T04:53:28;19.60;48.20
40289;DHT22;28991;52.028;5.526;2023-04-23T04:55:54;19.70;48.00
40289;DHT22;28991;52.028;5.526;2023-04-23T04:58:19;19.80;47.90
40289;DHT22;28991;52.028;5.526;2023-04-23T05:00:45;19.80;47.80
40289;DHT22;28991;52.028;5.526;2023-04-23T05:03:13;19.90;47.80
40289;DHT22;28991;52.028;5.526;2023-04-23T05:05:38;19.90;47.70
40289;DHT22;28991;52.028;5.526;2023-04-23T05:08:04;19.90;47.70
40289;DHT22;28991;52.028;5.526;2023-04-23T05:10:30;20.10;47.80
40289;DHT22;28991;52.028;5.526;2023-04-23T05:12:56;19.90;47.60
40289;DHT22;28991;52.028;5.526;2023-04-23T05:15:22;19.90;47.50
40289;DHT22;28991;52.028;5.526;2023-04-23T05:17:47;19.90;47.50
40289;DHT22;28991;52.028;5.526;2023-04-23T05:20:14;19.90;47.50
40289;DHT22;28991;52.028;5.526;2023-04-23T05:22:41;19.90;47.50
40289;DHT22;28991;52.028;5.526;2023-04-23T05:25:08;20.00;47.50
40289;DHT22;28991;52.028;5.526;2023-04-23T05:27:34;20.00;47.40
40289;DHT22;28991;52.028;5.526;2023-04-23T05:30:04;19.90;47.40
40289;DHT22;28991;52.028;5.526;2023-04-23T05:32:31;20.00;47.40
40289;DHT22;28991;52.028;5.526;2023-04-23T05:34:57;20.00;47.30
40289;DHT22;28991;52.028;5.526;2023-04-23T05:37:24;20.10;47.10
40289;DHT22;28991;52.028;5.526;2023-04-23T05:39:50;20.30;46.80
40289;DHT22;28991;52.028;5.526;2023-04-23T05:42:15;20.50;46.70
40289;DHT22;28991;52.028;5.526;2023-04-23T05:44:41;20.40;46.60
40289;DHT22;28991;52.028;5.526;2023-04-23T05:47:07;20.40;46.70
40289;DHT22;28991;52.028;5.526;2023-04-23T05:49:33;20.30;46.70
40289;DHT22;28991;52.028;5.526;2023-04-23T05:52:00;20.30;46.90
40289;DHT22;28991;52.028;5.526;2023-04-23T05:54:27;20.50;47.10
40289;DHT22;28991;52.028;5.526;2023-04-23T05:56:53;20.20;47.00
40289;DHT22;28991;52.028;5.526;2023-04-23T05:59:18;20.70;47.40
40289;DHT22;28991;52.028;5.526;2023-04-23T06:01:44;20.20;47.20
40289;DHT22;28991;52.028;5.526;2023-04-23T06:04:09;20.20;47.30
40289;DHT22;28991;52.028;5.526;2023-04-23T06:06:35;20.20;47.30
40289;DHT22;28991;52.028;5.526;2023-04-23T06:09:01;20.20;47.40
40289;DHT22;28991;52.028;5.526;2023-04-23T06:11:26;20.20;47.40
40289;DHT22;28991;52.028;5.526;2023-04-23T06:13:52;20.20;47.50
40289;DHT22;28991;52.028;5.526;2023-04-23T06:16:18;20.20;47.50
40289;DHT22;28991;52.028;5.526;2023-04-23T06:18:44;20.30;47.60
40289;DHT22;28991;52.028;5.526;2023-04-23T06:21:09;20.20;47.60
40289;DHT22;28991;52.028;5.526;2023-04-23T06:23:35;20.10;47.60
40289;DHT22;28991;52.028;5.526;2023-04-23T06:26:01;20.10;47.60
40289;DHT22;28991;52.028;5.526;2023-04-23T06:28:28;20.20;47.70
40289;DHT22;28991;52.028;5.526;2023-04-23T06:30:54;20.30;47.80
40289;DHT22;28991;52.028;5.526;2023-04-23T06:33:19;20.20;47.70
40289;DHT22;28991;52.028;5.526;2023-04-23T06:35:45;20.20;47.80
40289;DHT22;28991;52.028;5.526;2023-04-23T06:38:11;20.20;47.90
40289;DHT22;28991;52.028;5.526;2023-04-23T06:40:36;20.20;47.90
40289;DHT22;28991;52.028;5.526;2023-04-23T06:43:02;20.20;48.00
40289;DHT22;28991;52.028;5.526;2023-04-23T06:45:32;20.20;48.10
40289;DHT22;28991;52.028;5.526;2023-04-23T06:47:58;20.20;48.10
40289;DHT22;28991;52.028;5.526;2023-04-23T06:50:24;20.20;48.20
40289;DHT22;28991;52.028;5.526;2023-04-23T06:52:49;20.20;48.30
40289;DHT22;28991;52.028;5.526;2023-04-23T06:55:15;20.20;48.20
40289;DHT22;28991;52.028;5.526;2023-04-23T06:57:40;20.20;48.30
40289;DHT22;28991;52.028;5.526;2023-04-23T07:00:07;20.30;48.40
40289;DHT22;28991;52.028;5.526;2023-04-23T07:02:36;20.20;48.40
40289;DHT22;28991;52.028;5.526;2023-04-23T07:05:02;20.30;48.60
40289;DHT22;28991;52.028;5.526;2023-04-23T07:07:28;20.20;48.60
40289;DHT22;28991;52.028;5.526;2023-04-23T07:09:53;20.20;48.80
40289;DHT22;28991;52.028;5.526;2023-04-23T07:12:19;20.30;48.80
40289;DHT22;28991;52.028;5.526;2023-04-23T07:14:44;20.20;49.00
40289;DHT22;28991;52.028;5.526;2023-04-23T07:17:10;20.40;48.90
40289;DHT22;28991;52.028;5.526;2023-04-23T07:19:36;20.30;49.00
40289;DHT22;28991;52.028;5.526;2023-04-23T07:22:02;20.30;49.10
40289;DHT22;28991;52.028;5.526;2023-04-23T07:24:28;20.30;49.30
40289;DHT22;28991;52.028;5.526;2023-04-23T07:26:53;20.30;49.20
40289;DHT22;28991;52.028;5.526;2023-04-23T07:29:19;20.30;49.30
40289;DHT22;28991;52.028;5.526;2023-04-23T07:31:45;20.40;49.50
40289;DHT22;28991;52.028;5.526;2023-04-23T07:34:11;20.40;49.30
40289;DHT22;28991;52.028;5.526;2023-04-23T07:36:36;20.30;49.30
40289;DHT22;28991;52.028;5.526;2023-04-23T07:39:03;20.40;49.50
40289;DHT22;28991;52.028;5.526;2023-04-23T07:41:30;20.40;49.40
40289;DHT22;28991;52.028;5.526;2023-04-23T07:43:55;20.30;49.70
40289;DHT22;28991;52.028;5.526;2023-04-23T07:46:21;20.30;49.60
40289;DHT22;28991;52.028;5.526;2023-04-23T07:48:47;20.30;49.60
40289;DHT22;28991;52.028;5.526;2023-04-23T07:51:12;20.70;49.70
40289;DHT22;28991;52.028;5.526;2023-04-23T07:53:38;20.40;49.90
40289;DHT22;28991;52.028;5.526;2023-04-23T07:56:03;20.70;49.80
40289;DHT22;28991;52.028;5.526;2023-04-23T07:58:29;20.40;49.80
40289;DHT22;28991;52.028;5.526;2023-04-23T08:00:57;20.40;50.00
40289;DHT22;28991;52.028;5.526;2023-04-23T08:03:23;20.40;49.70
40289;DHT22;28991;52.028;5.526;2023-04-23T08:05:48;20.50;49.80
40289;DHT22;28991;52.028;5.526;2023-04-23T08:08:14;20.40;49.80
40289;DHT22;28991;52.028;5.526;2023-04-23T08:10:39;20.50;49.80
40289;DHT22;28991;52.028;5.526;2023-04-23T08:13:05;20.50;49.90
40289;DHT22;28991;52.028;5.526;2023-04-23T08:15:31;20.50;49.90
40289;DHT22;28991;52.028;5.526;2023-04-23T08:17:56;20.50;50.00
40289;DHT22;28991;52.028;5.526;2023-04-23T08:20:22;20.50;50.00
40289;DHT22;28991;52.028;5.526;2023-04-23T08:22:47;20.50;50.10
40289;DHT22;28991;52.028;5.526;2023-04-23T08:25:14;20.50;50.10
40289;DHT22;28991;52.028;5.526;2023-04-23T08:27:40;20.50;50.10
40289;DHT22;28991;52.028;5.526;2023-04-23T08:30:06;20.50;50.10
40289;DHT22;28991;52.028;5.526;2023-04-23T08:32:33;20.50;50.20
40289;DHT22;28991;52.028;5.526;2023-04-23T08:34:58;20.50;50.10
40289;DHT22;28991;52.028;5.526;2023-04-23T08:37:24;20.60;50.30
40289;DHT22;28991;52.028;5.526;2023-04-23T08:39:50;20.50;50.50
40289;DHT22;28991;52.028;5.526;2023-04-23T08:42:49;20.50;50.50
40289;DHT22;28991;52.028;5.526;2023-04-23T08:45:17;20.50;50.60
40289;DHT22;28991;52.028;5.526;2023-04-23T08:47:43;20.50;50.60
40289;DHT22;28991;52.028;5.526;2023-04-23T08:50:18;20.90;51.10
40289;DHT22;28991;52.028;5.526;2023-04-23T08:52:53;20.50;51.00
40289;DHT22;28991;52.028;5.526;2023-04-23T08:55:20;20.60;50.80
40289;DHT22;28991;52.028;5.526;2023-04-23T08:57:46;20.60;50.80
40289;DHT22;28991;52.028;5.526;2023-04-23T09:00:14;20.60;50.80
40289;DHT22;28991;52.028;5.526;2023-04-23T09:02:46;20.60;50.90
40289;DHT22;28991;52.028;5.526;2023-04-23T09:05:12;20.60;50.90
40289;DHT22;28991;52.028;5.526;2023-04-23T09:07:38;20.60;50.90
40289;DHT22;28991;52.028;5.526;2023-04-23T09:10:05;20.50;50.60
40289;DHT22;28991;52.028;5.526;2023-04-23T09:12:35;20.60;50.80
40289;DHT22;28991;52.028;5.526;2023-04-23T09:15:02;20.60;50.90
40289;DHT22;28991;52.028;5.526;2023-04-23T09:17:35;20.70;50.90
40289;DHT22;28991;52.028;5.526;2023-04-23T09:20:02;20.60;50.80
40289;DHT22;28991;52.028;5.526;2023-04-23T09:25:07;20.70;51.10
40289;DHT22;28991;52.028;5.526;2023-04-23T09:27:34;20.60;51.10
40289;DHT22;28991;52.028;5.526;2023-04-23T09:30:02;20.60;51.00
40289;DHT22;28991;52.028;5.526;2023-04-23T09:32:32;20.70;50.90
40289;DHT22;28991;52.028;5.526;2023-04-23T09:34:58;20.70;51.00
40289;DHT22;28991;52.028;5.526;2023-04-23T09:37:26;20.70;51.20
40289;DHT22;28991;52.028;5.526;2023-04-23T09:39:52;20.70;51.00
40289;DHT22;28991;52.028;5.526;2023-04-23T09:42:22;20.60;51.10
40289;DHT22;28991;52.028;5.526;2023-04-23T09:45:05;20.70;51.00
40289;DHT22;28991;52.028;5.526;2023-04-23T09:47:39;20.70;51.00
40289;DHT22;28991;52.028;5.526;2023-04-23T09:50:05;20.90;51.00
40289;DHT22;28991;52.028;5.526;2023-04-23T09:52:32;20.70;50.90
40289;DHT22;28991;52.028;5.526;2023-04-23T09:55:00;20.70;50.90
40289;DHT22;28991;52.028;5.526;2023-04-23T09:57:26;20.70;50.80
40289;DHT22;28991;52.028;5.526;2023-04-23T09:59:52;20.90;50.80
40289;DHT22;28991;52.028;5.526;2023-04-23T10:02:26;20.70;50.60
40289;DHT22;28991;52.028;5.526;2023-04-23T10:04:52;20.70;50.70
40289;DHT22;28991;52.028;5.526;2023-04-23T10:07:18;20.80;50.60
40289;DHT22;28991;52.028;5.526;2023-04-23T10:09:44;20.80;50.60
40289;DHT22;28991;52.028;5.526;2023-04-23T10:12:10;20.80;50.50
40289;DHT22;28991;52.028;5.526;2023-04-23T10:14:37;20.70;50.40
40289;DHT22;28991;52.028;5.526;2023-04-23T10:17:04;20.80;50.40
40289;DHT22;28991;52.028;5.526;2023-04-23T10:19:31;20.70;50.20
40289;DHT22;28991;52.028;5.526;2023-04-23T10:21:58;20.70;50.20
40289;DHT22;28991;52.028;5.526;2023-04-23T10:24:34;20.70;50.10
40289;DHT22;28991;52.028;5.526;2023-04-23T10:27:04;20.70;50.10
40289;DHT22;28991;52.028;5.526;2023-04-23T10:29:33;20.70;50.10
40289;DHT22;28991;52.028;5.526;2023-04-23T10:32:04;20.90;50.10
40289;DHT22;28991;52.028;5.526;2023-04-23T10:34:31;20.70;49.90
40289;DHT22;28991;52.028;5.526;2023-04-23T10:36:59;20.70;49.90
40289;DHT22;28991;52.028;5.526;2023-04-23T10:39:30;20.70;49.80
40289;DHT22;28991;52.028;5.526;2023-04-23T10:41:57;20.70;49.80
40289;DHT22;28991;52.028;5.526;2023-04-23T10:44:31;20.70;49.70
40289;DHT22;28991;52.028;5.526;2023-04-23T10:46:57;20.70;49.60
40289;DHT22;28991;52.028;5.526;2023-04-23T10:49:25;20.70;49.50
40289;DHT22;28991;52.028;5.526;2023-04-23T10:52:16;20.70;49.50
40289;DHT22;28991;52.028;5.526;2023-04-23T10:54:55;20.70;49.50
40289;DHT22;28991;52.028;5.526;2023-04-23T10:57:21;20.70;49.30
40289;DHT22;28991;52.028;5.526;2023-04-23T10:59:54;20.70;49.10
40289;DHT22;28991;52.028;5.526;2023-04-23T11:02:23;20.70;49.30
40289;DHT22;28991;52.028;5.526;2023-04-23T11:04:56;20.70;49.20
40289;DHT22;28991;52.028;5.526;2023-04-23T11:07:28;20.70;49.20
40289;DHT22;28991;52.028;5.526;2023-04-23T11:09:58;20.60;49.20
40289;DHT22;28991;52.028;5.526;2023-04-23T11:14:54;20.60;49.20
40289;DHT22;28991;52.028;5.526;2023-04-23T11:20:12;20.50;49.10
40289;DHT22;28991;52.028;5.526;2023-04-23T11:22:42;20.60;49.20
40289;DHT22;28991;52.028;5.526;2023-04-23T11:25:13;20.50;49.10
40289;DHT22;28991;52.028;5.526;2023-04-23T11:27:40;20.50;49.20
40289;DHT22;28991;52.028;5.526;2023-04-23T11:32:49;20.50;49.20
40289;DHT22;28991;52.028;5.526;2023-04-23T11:35:17;20.50;49.20
40289;DHT22;28991;52.028;5.526;2023-04-23T11:37:43;20.50;49.20
40289;DHT22;28991;52.028;5.526;2023-04-23T11:40:13;20.40;49.10
40289;DHT22;28991;52.028;5.526;2023-04-23T11:42:47;20.40;49.10
40289;DHT22;28991;52.028;5.526;2023-04-23T11:45:18;20.40;49.10
40289;DHT22;28991;52.028;5.526;2023-04-23T11:47:47;20.40;49.10
40289;DHT22;28991;52.028;5.526;2023-04-23T11:50:19;20.40;49.10
40289;DHT22;28991;52.028;5.526;2023-04-23T11:52:46;20.30;49.10
40289;DHT22;28991;52.028;5.526;2023-04-23T11:55:12;20.30;49.10
40289;DHT22;28991;52.028;5.526;2023-04-23T11:57:45;20.30;49.10
40289;DHT22;28991;52.028;5.526;2023-04-23T12:02:53;20.30;49.10
40289;DHT22;28991;52.028;5.526;2023-04-23T12:05:21;20.30;49.10
40289;DHT22;28991;52.028;5.526;2023-04-23T12:07:50;20.30;49.10
40289;DHT22;28991;52.028;5.526;2023-04-23T12:10:19;20.30;49.10
40289;DHT22;28991;52.028;5.526;2023-04-23T12:12:51;20.30;49.00
40289;DHT22;28991;52.028;5.526;2023-04-23T12:15:16;20.30;49.10
40289;DHT22;28991;52.028;5.526;2023-04-23T12:17:47;20.30;49.00
40289;DHT22;28991;52.028;5.526;2023-04-23T12:20:19;20.20;49.00
40289;DHT22;28991;52.028;5.526;2023-04-23T12:22:45;20.30;49.10
40289;DHT22;28991;52.028;5.526;2023-04-23T12:25:11;20.30;49.10
40289;DHT22;28991;52.028;5.526;2023-04-23T12:27:40;20.80;49.30
40289;DHT22;28991;52.028;5.526;2023-04-23T12:30:08;20.20;49.10
40289;DHT22;28991;52.028;5.526;2023-04-23T12:32:36;20.30;49.10
40289;DHT22;28991;52.028;5.526;2023-04-23T12:35:02;20.20;49.00
40289;DHT22;28991;52.028;5.526;2023-04-23T12:37:34;20.20;49.00
40289;DHT22;28991;52.028;5.526;2023-04-23T12:40:00;20.20;49.00
40289;DHT22;28991;52.028;5.526;2023-04-23T12:42:26;20.20;49.00
40289;DHT22;28991;52.028;5.526;2023-04-23T12:44:51;20.40;49.20
40289;DHT22;28991;52.028;5.526;2023-04-23T12:47:19;20.30;49.10
40289;DHT22;28991;52.028;5.526;2023-04-23T12:49:47;20.30;49.10
40289;DHT22;28991;52.028;5.526;2023-04-23T12:52:13;20.20;49.00
40289;DHT22;28991;52.028;5.526;2023-04-23T12:54:40;20.20;49.00
40289;DHT22;28991;52.028;5.526;2023-04-23T12:57:07;20.20;49.00
40289;DHT22;28991;52.028;5.526;2023-04-23T12:59:35;20.20;49.00
40289;DHT22;28991;52.028;5.526;2023-04-23T13:02:00;20.20;49.00
40289;DHT22;28991;52.028;5.526;2023-04-23T13:04:31;20.30;49.10
40289;DHT22;28991;52.028;5.526;2023-04-23T13:06:57;20.30;49.10
40289;DHT22;28991;52.028;5.526;2023-04-23T13:09:22;20.20;49.00
40289;DHT22;28991;52.028;5.526;2023-04-23T13:11:49;20.20;49.00
40289;DHT22;28991;52.028;5.526;2023-04-23T13:14:15;20.20;49.00
40289;DHT22;28991;52.028;5.526;2023-04-23T13:16:42;20.20;49.00
40289;DHT22;28991;52.028;5.526;2023-04-23T13:19:07;20.20;49.00
40289;DHT22;28991;52.028;5.526;2023-04-23T13:21:33;20.20;49.10
40289;DHT22;28991;52.028;5.526;2023-04-23T13:23:59;20.20;49.10
40289;DHT22;28991;52.028;5.526;2023-04-23T13:26:25;20.30;49.10
40289;DHT22;28991;52.028;5.526;2023-04-23T13:28:50;20.20;49.10
40289;DHT22;28991;52.028;5.526;2023-04-23T13:31:16;20.20;49.10
40289;DHT22;28991;52.028;5.526;2023-04-23T13:33:41;20.20;49.10
40289;DHT22;28991;52.028;5.526;2023-04-23T13:36:08;20.20;49.10
40289;DHT22;28991;52.028;5.526;2023-04-23T13:38:33;20.20;49.10
40289;DHT22;28991;52.028;5.526;2023-04-23T13:40:59;20.20;49.10
40289;DHT22;28991;52.028;5.526;2023-04-23T13:43:25;20.20;49.10
40289;DHT22;28991;52.028;5.526;2023-04-23T13:45:52;20.20;49.10
40289;DHT22;28991;52.028;5.526;2023-04-23T13:48:18;20.10;49.00
40289;DHT22;28991;52.028;5.526;2023-04-23T13:50:44;20.20;49.00
40289;DHT22;28991;52.028;5.526;2023-04-23T13:53:10;20.30;49.00
40289;DHT22;28991;52.028;5.526;2023-04-23T13:55:37;20.30;48.90
40289;DHT22;28991;52.028;5.526;2023-04-23T13:58:03;20.40;48.90
40289;DHT22;28991;52.028;5.526;2023-04-23T14:00:29;20.40;48.80
40289;DHT22;28991;52.028;5.526;2023-04-23T14:02:55;20.50;48.80
40289;DHT22;28991;52.028;5.526;2023-04-23T14:05:21;20.50;48.70
40289;DHT22;28991;52.028;5.526;2023-04-23T14:07:47;20.60;48.70
40289;DHT22;28991;52.028;5.526;2023-04-23T14:10:13;20.50;48.60
40289;DHT22;28991;52.028;5.526;2023-04-23T14:12:39;20.50;48.60
40289;DHT22;28991;52.028;5.526;2023-04-23T14:15:06;20.60;48.60
40289;DHT22;28991;52.028;5.526;2023-04-23T14:17:33;20.50;48.60
40289;DHT22;28991;52.028;5.526;2023-04-23T14:19:58;20.60;48.60
40289;DHT22;28991;52.028;5.526;2023-04-23T14:22:24;20.50;48.60
40289;DHT22;28991;52.028;5.526;2023-04-23T14:24:55;20.50;48.60
40289;DHT22;28991;52.028;5.526;2023-04-23T14:27:22;20.50;48.70
40289;DHT22;28991;52.028;5.526;2023-04-23T14:29:56;20.50;48.60
40289;DHT22;28991;52.028;5.526;2023-04-23T14:32:22;20.50;48.70
40289;DHT22;28991;52.028;5.526;2023-04-23T14:34:49;20.50;48.60
40289;DHT22;28991;52.028;5.526;2023-04-23T14:37:14;20.50;48.70
40289;DHT22;28991;52.028;5.526;2023-04-23T14:39:41;20.70;48.80
40289;DHT22;28991;52.028;5.526;2023-04-23T14:42:07;20.50;48.70
40289;DHT22;28991;52.028;5.526;2023-04-23T14:44:33;20.50;48.70
40289;DHT22;28991;52.028;5.526;2023-04-23T14:46:58;20.70;48.80
40289;DHT22;28991;52.028;5.526;2023-04-23T14:49:24;20.50;48.70
40289;DHT22;28991;52.028;5.526;2023-04-23T14:51:51;20.40;48.70
40289;DHT22;28991;52.028;5.526;2023-04-23T14:54:20;20.50;48.70
40289;DHT22;28991;52.028;5.526;2023-04-23T14:56:46;20.40;48.70
40289;DHT22;28991;52.028;5.526;2023-04-23T14:59:12;20.40;48.70
40289;DHT22;28991;52.028;5.526;2023-04-23T15:01:37;20.20;48.60
40289;DHT22;28991;52.028;5.526;2023-04-23T15:04:03;20.40;48.80
40289;DHT22;28991;52.028;5.526;2023-04-23T15:06:29;20.30;48.70
40289;DHT22;28991;52.028;5.526;2023-04-23T15:08:55;20.30;48.80
40289;DHT22;28991;52.028;5.526;2023-04-23T15:11:20;20.30;48.80
40289;DHT22;28991;52.028;5.526;2023-04-23T15:13:55;20.30;48.80
40289;DHT22;28991;52.028;5.526;2023-04-23T15:16:29;20.30;48.80
40289;DHT22;28991;52.028;5.526;2023-04-23T15:18:58;20.30;48.80
40289;DHT22;28991;52.028;5.526;2023-04-23T15:21:23;20.50;48.90
40289;DHT22;28991;52.028;5.526;2023-04-23T15:23:49;20.30;48.80
40289;DHT22;28991;52.028;5.526;2023-04-23T15:26:15;20.20;48.80
40289;DHT22;28991;52.028;5.526;2023-04-23T15:28:41;20.20;48.80
40289;DHT22;28991;52.028;5.526;2023-04-23T15:31:07;20.20;48.90
40289;DHT22;28991;52.028;5.526;2023-04-23T15:33:32;20.30;48.90
40289;DHT22;28991;52.028;5.526;2023-04-23T15:35:58;20.20;48.90
40289;DHT22;28991;52.028;5.526;2023-04-23T15:38:24;20.20;48.80
40289;DHT22;28991;52.028;5.526;2023-04-23T15:40:49;20.20;48.80